Terminal Aerodrome Forecast
Issued by NWS

Home | Current Version | Previous Version | Text Only | Print | Product List | Glossary On
Versions: 1 2 3 4 5 6 7 8 9 10 11 12 13 14 15 16 17 18 19 20 21 22 23 24 25 26 27 28
632
FTUS42 KGSP 232118 AAB
TAFAND
TAF AMD
KAND 232118Z 2321/2418 26010G18KT P6SM VCSH FEW045 BKN060 OVC090
      TEMPO 2321/2324 VRB03KT BKN045 OVC060
     FM240000 29012G19KT P6SM SCT050
     FM240500 27012KT P6SM FEW050
     FM241000 26008KT P6SM FEW250=

USA.gov is the U.S. government's official web portal to all federal, state and local government web resources and services.